• Join FlightAware (Why Join?)
  • Login
  • US Flag 
02:38PM EDT


 

Airport Tracker/Info


-or-


 

Live Flight TrackerFlight Track Log ✈ DAL6169 ✈ 10-May-2013 ✈ KMHT - KDTW

Flight Track Log - Related Links

Times and Time Zones

All times are in EDT time to prevent confusion due to time zone crossing. See the DAL6169 flight status page for this flight to view local times or setup timezone preferences in your user account.

Time Position Orientation Groundspeed Altitude Reporting Facility
EDT Latitude Longitude Course Direction KTS MPH feet Rate Location/Type
11:38AM 42.9864 -71.5147 308° West 181 208 3,500  Level Boston Center
11:39AM 43.0244 -71.5881 305° West 207 238 5,700 2,100 Climbing Boston Center
11:40AM 42.9333 -71.8023 270° West  Level FlightAware Approximate
11:40AM 43.0500 -71.6586 296° West 226 260 7,700  Level Boston Center
11:41AM 42.9500 -71.9230 270° West  Level FlightAware Approximate
11:41AM 43.0633 -71.7639 280° West 252 290 9,300  Level Boston Center
11:42AM 42.9501 -72.0467 270° West  Level FlightAware Approximate
11:42AM 43.0742 -71.8631 279° West 284 327 10,700  Level Boston Center
11:44AM 43.0917 -72.0136 279° West 305 351 12,600 1,440 Climbing Boston Center
11:45AM 43.1044 -72.1217 279° West 322 371 13,900 1,440 Climbing Boston Center
11:46AM 43.1192 -72.2553 279° West 327 376 15,500 1,440 Climbing Boston Center
11:47AM 43.1278 -72.3719 276° West 332 382 16,800 1,380 Climbing Boston Center
11:48AM 43.1361 -72.4969 275° West 332 382 18,300 1,500 Climbing Boston Center
11:49AM 43.1422 -72.6222 274° West 332 382 19,800 1,440 Climbing Boston Center
11:50AM 43.1503 -72.7503 275° West 332 382 21,200 1,260 Climbing Boston Center
11:51AM 43.1581 -72.8811 275° West 337 388 22,400 1,080 Climbing Boston Center
11:52AM 43.1639 -73.0178 273° West 349 402 23,400 900 Climbing Boston Center
11:53AM 43.1733 -73.1489 276° West 354 407 24,300 900 Climbing Boston Center
11:54AM 43.1831 -73.2886 275° West 359 413 25,300 900 Climbing Boston Center
11:55AM 43.1817 -73.4394 269° West 359 413 26,300 900 Climbing Boston Center
11:56AM 43.1822 -73.6075 270° West 365 420 27,400 900 Climbing Boston Center
11:57AM 43.1828 -73.7469 270° West 365 420 28,200 720 Climbing Boston Center
11:58AM 43.1811 -73.8808 269° West 365 420 29,100 900 Climbing Boston Center
11:59AM 43.1833 -74.0403 271° West 365 420 30,300 1,020 Climbing Boston Center
12:00PM 43.1833 -74.1797 270° West 365 420 31,200 900 Climbing Boston Center
12:01PM 43.1811 -74.3108 269° West 365 420 32,100 900 Climbing Boston Center
12:02PM 43.1808 -74.4503 270° West 365 420 33,100 780 Climbing Boston Center
12:03PM 43.1800 -74.6125 270° West 365 420 33,900 360 Climbing Boston Center
12:04PM 43.1794 -74.7522 270° West 365 420 33,900  Level Boston Center
12:05PM 43.1783 -74.8972 269° West 370 426 33,900  Level Boston Center
12:06PM 43.1792 -75.0483 270° West 381 438 33,900 420 Level Boston Center
12:08PM 43.1750 -75.2217 268° West 387 445 35,000 900 Climbing Boston Center
12:09PM 43.1728 -75.3925 269° West 382 440 35,900 420 Climbing Boston Center
12:10PM 43.1742 -75.5036 271° West 377 434 35,900  Level Boston Center
12:11PM 43.1714 -75.6744 269° West 377 434 35,900  Level Boston Center
12:12PM 43.1694 -75.8225 269° West 382 440 35,900  Level Boston Center
12:13PM 43.1650 -75.9672 268° West 387 445 35,900  Level Boston Center
12:14PM 43.1633 -76.0839 269° West 382 440 35,900  Level Boston Center
12:15PM 43.1578 -76.2575 268° West 382 440 35,900  Level Boston Center
12:16PM 43.1453 -76.4000 263° West 384 442 35,900  Level Cleveland Center
12:17PM 43.1317 -76.5461 263° West 384 442 35,900  Level Cleveland Center
12:18PM 43.1200 -76.6892 264° West 384 442 35,900  Level Cleveland Center
12:19PM 43.1042 -76.8436 262° West 384 442 36,000  Climbing Cleveland Center
12:20PM 43.0922 -76.9867 264° West 389 448 36,000  Level Cleveland Center
12:21PM 43.0797 -77.1294 263° West 389 448 36,000  Level Cleveland Center
12:22PM 43.0672 -77.2722 263° West 389 448 36,000  Level Cleveland Center
12:23PM 43.0525 -77.4122 262° West 389 448 36,000  Level Cleveland Center
12:24PM 43.0414 -77.5492 264° West 384 442 36,000  Level Cleveland Center
12:25PM 43.0283 -77.6892 263° West 379 436 36,000  Level Cleveland Center
12:26PM 43.0131 -77.8261 261° West 374 430 36,000  Level Cleveland Center
12:27PM 43.0014 -77.9517 263° West 374 430 36,000  Level Cleveland Center
12:28PM 42.9878 -78.0911 262° West 374 430 36,000  Level Cleveland Center
12:29PM 42.9739 -78.2308 262° West 374 430 36,000  Level Cleveland Center
12:30PM 42.9600 -78.3703 262° West 374 430 36,000  Level Cleveland Center
12:31PM 42.9458 -78.5042 262° West 374 430 36,000  Level Cleveland Center
12:32PM 42.9294 -78.6408 261° West 374 430 36,000  Level Cleveland Center
12:33PM 42.9131 -78.7775 261° West 374 430 36,000  Level Cleveland Center
12:34PM 42.8922 -78.9142 258° West 374 430 36,000  Level Cleveland Center
12:35PM 42.8753 -79.0506 260° West 374 430 36,000  Level Cleveland Center
12:36PM 42.8519 -79.1900 257° West 374 430 36,000  Level Cleveland Center
12:37PM 42.8306 -79.3264 258° West 374 430 36,000  Level Cleveland Center
12:38PM 42.8111 -79.4625 259° West 374 430 36,000 -540 Level Cleveland Center
12:39PM 42.7936 -79.5931 260° West 369 425 35,000 -1,200 Descending Cleveland Center
12:40PM 42.7719 -79.7347 258° West 374 430 33,700 -1,680 Descending Cleveland Center
12:41PM 42.7519 -79.8764 259° West 374 430 31,700 -1,980 Descending Cleveland Center
12:42PM 42.7425 -80.0406 266° West 389 448 29,800 -1,740 Descending Cleveland Center
12:43PM 42.7347 -80.1875 266° West 403 464 28,300 -900 Descending Cleveland Center
12:44PM 42.7308 -80.3431 268° West 409 471 28,000 -180 Descending Cleveland Center
12:45PM 42.7250 -80.4956 267° West 409 471 28,000  Level Cleveland Center
12:46PM 42.7164 -80.6511 266° West 409 471 28,000  Level Cleveland Center
12:47PM 42.7100 -80.7839 266° West 409 471 28,000 -300 Level Cleveland Center
12:48PM 42.7014 -80.9419 266° West 404 465 27,500 -1,020 Descending Cleveland Center
12:49PM 42.6842 -81.0886 261° West 404 465 26,000 -1,500 Descending Cleveland Center
12:50PM 42.6667 -81.2411 261° West 410 472 24,500 -1,500 Descending Cleveland Center
12:51PM 42.6492 -81.3906 261° West 410 472 23,100 -1,500 Descending Cleveland Center
12:52PM 42.6314 -81.5428 261° West 410 472 21,600 -1,500 Descending Cleveland Center
12:53PM 42.6133 -81.6833 260° West 400 460 20,100 -1,560 Descending Cleveland Center
12:54PM 42.5931 -81.8411 260° West 394 453 18,500 -1,560 Descending Cleveland Center
12:55PM 42.5767 -81.9789 261° West 388 447 17,000 -1,500 Descending Cleveland Center
12:56PM 42.5625 -82.1083 262° West 376 433 15,500 -1,560 Descending Cleveland Center
12:56PM 42.5578 -82.1617 263° West 353 406 14,900 -1,500 Descending Cleveland Center
12:57PM 42.5442 -82.2403 257° West 364 419 14,000 -1,380 Descending Cleveland Center
12:57PM 42.5414 -82.2881 266° West 345 397 13,500 -1,440 Descending Cleveland Center
12:58PM 42.5297 -82.3639 258° West 359 413 12,600 -1,560 Descending Cleveland Center
12:58PM 42.5269 -82.4033 265° West 334 384 12,100 -600 Descending Cleveland Center
12:59PM 42.5153 -82.4875 259° West 341 392 12,000 -120 Descending Cleveland Center
12:59PM 42.5106 -82.5239 260° West 326 375 12,000 -120 Level Cleveland Center
01:00PM 42.4861 -82.6019 247° West 336 387 11,900 -540 Descending Cleveland Center
01:00PM 42.4772 -82.6356 250° West 321 369 11,500 -1,500 Descending Cleveland Center
01:01PM 42.4511 -82.7050 243° Southwest 322 371 10,400 -1,320 Descending Cleveland Center
01:01PM 42.4400 -82.7383 246° West 267 307 10,200 -1,020 Descending Cleveland Center
01:02PM 42.4225 -82.7856 243° Southwest 283 326 9,400 -1,440 Descending Cleveland Center
01:02PM 42.4281 -82.8139 285° West 224 258 8,900 -1,800 Descending Cleveland Center
01:03PM 42.4394 -82.8706 285° West 234 269 7,600 -1,680 Descending Cleveland Center
01:03PM 42.4431 -82.8961 281° West 225 259 7,200 -600 Descending Cleveland Center
01:04PM 42.4483 -82.9525 277° West 234 269 7,000 -240 Descending Cleveland Center
01:04PM 42.4519 -82.9836 279° West 225 259 7,000 -240 Level Cleveland Center
01:05PM 42.4547 -83.0372 274° West 234 269 6,800 -600 Descending Cleveland Center
01:05PM 42.4586 -83.0597 283° West 200 230 6,400 -840 Descending Cleveland Center
01:06PM 42.4617 -83.1078 275° West 216 249 6,000 -420 Descending Cleveland Center
01:06PM 42.4611 -83.1331 268° West 174 200 6,000 -120 Level Cleveland Center
01:07PM 42.4331 -83.1769 229° Southwest 164 189 5,900 -540 Descending Cleveland Center
01:08PM 42.3800 -83.2169 209° Southwest 163 188 4,900 -1,020 Descending Cleveland Center
01:09PM 42.3503 -83.2383 208° Southwest 176 203 3,900 -1,260 Descending Cleveland Center
01:10PM 42.2953 -83.2781 208° Southwest 163 188 2,400 -1,140 Descending Cleveland Center